sensor_id;sensor_type;location;lat;lon;timestamp;P1;durP1;ratioP1;P2;durP2;ratioP2
58250;SDS011;51449;51.676;5.812;2023-04-06T05:10:34;30.47;;;17.57;;
58250;SDS011;51449;51.676;5.812;2023-04-06T06:21:52;29.83;;;17.10;;
58250;SDS011;51449;51.676;5.812;2023-04-06T06:24:15;27.20;;;16.57;;
58250;SDS011;51449;51.676;5.812;2023-04-06T06:26:37;26.10;;;15.90;;
58250;SDS011;51449;51.676;5.812;2023-04-06T06:29:01;25.42;;;15.82;;
58250;SDS011;51449;51.676;5.812;2023-04-06T06:31:23;25.80;;;15.57;;
58250;SDS011;51449;51.676;5.812;2023-04-06T06:33:46;26.77;;;15.80;;
58250;SDS011;51449;51.676;5.812;2023-04-06T06:36:12;24.50;;;15.60;;
58250;SDS011;51449;51.676;5.812;2023-04-06T06:38:34;29.97;;;16.43;;
58250;SDS011;51449;51.676;5.812;2023-04-06T06:40:56;26.20;;;15.57;;
58250;SDS011;51449;51.676;5.812;2023-04-06T06:43:20;24.95;;;15.63;;
58250;SDS011;51449;51.676;5.812;2023-04-06T06:45:51;21.87;;;14.40;;
58250;SDS011;51449;51.676;5.812;2023-04-06T06:48:13;26.40;;;15.07;;
58250;SDS011;51449;51.676;5.812;2023-04-06T06:50:35;26.00;;;15.47;;
58250;SDS011;51449;51.676;5.812;2023-04-06T06:52:56;23.60;;;14.67;;
58250;SDS011;51449;51.676;5.812;2023-04-06T06:55:18;24.20;;;15.17;;
58250;SDS011;51449;51.676;5.812;2023-04-06T06:57:40;26.33;;;14.13;;
58250;SDS011;51449;51.676;5.812;2023-04-06T07:00:05;22.90;;;14.32;;
58250;SDS011;51449;51.676;5.812;2023-04-06T07:02:28;24.42;;;14.35;;
58250;SDS011;51449;51.676;5.812;2023-04-06T07:04:50;25.37;;;14.87;;
58250;SDS011;51449;51.676;5.812;2023-04-06T07:07:12;22.27;;;14.90;;
58250;SDS011;51449;51.676;5.812;2023-04-06T07:09:34;25.37;;;14.57;;
58250;SDS011;51449;51.676;5.812;2023-04-06T07:11:56;21.27;;;13.73;;
58250;SDS011;51449;51.676;5.812;2023-04-06T07:14:18;25.23;;;14.53;;
58250;SDS011;51449;51.676;5.812;2023-04-06T07:16:40;21.97;;;14.00;;
58250;SDS011;51449;51.676;5.812;2023-04-06T07:19:03;23.80;;;14.60;;
58250;SDS011;51449;51.676;5.812;2023-04-06T07:21:25;23.50;;;13.33;;
58250;SDS011;51449;51.676;5.812;2023-04-06T07:23:47;23.83;;;14.27;;
58250;SDS011;51449;51.676;5.812;2023-04-06T07:26:10;22.63;;;14.00;;
58250;SDS011;51449;51.676;5.812;2023-04-06T07:28:32;23.13;;;13.77;;
58250;SDS011;51449;51.676;5.812;2023-04-06T07:30:55;20.97;;;13.17;;
58250;SDS011;51449;51.676;5.812;2023-04-06T07:33:17;22.43;;;14.07;;
58250;SDS011;51449;51.676;5.812;2023-04-06T07:35:40;28.13;;;15.70;;
58250;SDS011;51449;51.676;5.812;2023-04-06T07:38:02;19.90;;;12.40;;
58250;SDS011;51449;51.676;5.812;2023-04-06T07:40:25;23.45;;;14.13;;
58250;SDS011;51449;51.676;5.812;2023-04-06T07:42:50;21.27;;;13.77;;
58250;SDS011;51449;51.676;5.812;2023-04-06T07:45:12;21.07;;;12.83;;
58250;SDS011;51449;51.676;5.812;2023-04-06T07:47:34;22.10;;;14.00;;
58250;SDS011;51449;51.676;5.812;2023-04-06T07:49:57;18.57;;;12.83;;
58250;SDS011;51449;51.676;5.812;2023-04-06T07:52:19;20.73;;;12.80;;
58250;SDS011;51449;51.676;5.812;2023-04-06T07:54:40;20.63;;;13.10;;
58250;SDS011;51449;51.676;5.812;2023-04-06T07:57:03;19.03;;;13.33;;
58250;SDS011;51449;51.676;5.812;2023-04-06T07:59:24;22.47;;;13.50;;
58250;SDS011;51449;51.676;5.812;2023-04-06T08:01:46;20.43;;;13.33;;
58250;SDS011;51449;51.676;5.812;2023-04-06T08:04:08;21.10;;;13.13;;
58250;SDS011;51449;51.676;5.812;2023-04-06T08:06:31;22.90;;;13.57;;
58250;SDS011;51449;51.676;5.812;2023-04-06T08:08:52;21.17;;;12.93;;
58250;SDS011;51449;51.676;5.812;2023-04-06T08:11:15;22.93;;;13.57;;
58250;SDS011;51449;51.676;5.812;2023-04-06T08:13:37;20.13;;;13.07;;
58250;SDS011;51449;51.676;5.812;2023-04-06T08:15:58;20.37;;;12.87;;
58250;SDS011;51449;51.676;5.812;2023-04-06T08:18:21;20.53;;;13.20;;
58250;SDS011;51449;51.676;5.812;2023-04-06T08:20:43;20.53;;;13.30;;
58250;SDS011;51449;51.676;5.812;2023-04-06T08:23:05;21.70;;;13.10;;
58250;SDS011;51449;51.676;5.812;2023-04-06T08:25:28;21.27;;;12.40;;
58250;SDS011;51449;51.676;5.812;2023-04-06T08:27:49;18.87;;;12.57;;
58250;SDS011;51449;51.676;5.812;2023-04-06T08:30:11;20.90;;;13.17;;
58250;SDS011;51449;51.676;5.812;2023-04-06T08:32:33;24.37;;;13.60;;
58250;SDS011;51449;51.676;5.812;2023-04-06T08:34:55;21.23;;;12.80;;
58250;SDS011;51449;51.676;5.812;2023-04-06T08:37:17;23.37;;;13.50;;
58250;SDS011;51449;51.676;5.812;2023-04-06T08:39:38;22.27;;;13.00;;
58250;SDS011;51449;51.676;5.812;2023-04-06T08:42:00;23.30;;;12.97;;
58250;SDS011;51449;51.676;5.812;2023-04-06T08:44:24;21.85;;;13.45;;
58250;SDS011;51449;51.676;5.812;2023-04-06T08:46:46;19.20;;;12.07;;
58250;SDS011;51449;51.676;5.812;2023-04-06T08:49:09;20.87;;;12.70;;
58250;SDS011;51449;51.676;5.812;2023-04-06T08:51:31;20.80;;;12.33;;
58250;SDS011;51449;51.676;5.812;2023-04-06T08:53:53;21.97;;;13.23;;
58250;SDS011;51449;51.676;5.812;2023-04-06T08:56:17;19.83;;;12.80;;
58250;SDS011;51449;51.676;5.812;2023-04-06T08:58:39;22.67;;;13.60;;
58250;SDS011;51449;51.676;5.812;2023-04-06T09:01:07;19.97;;;13.53;;
58250;SDS011;51449;51.676;5.812;2023-04-06T09:03:32;21.93;;;12.10;;
58250;SDS011;51449;51.676;5.812;2023-04-06T09:05:59;22.10;;;13.63;;
58250;SDS011;51449;51.676;5.812;2023-04-06T09:08:22;21.27;;;12.73;;
58250;SDS011;51449;51.676;5.812;2023-04-06T09:10:43;21.57;;;13.13;;
58250;SDS011;51449;51.676;5.812;2023-04-06T09:13:06;19.73;;;13.07;;
58250;SDS011;51449;51.676;5.812;2023-04-06T09:15:29;19.17;;;12.87;;
58250;SDS011;51449;51.676;5.812;2023-04-06T09:17:51;20.10;;;12.97;;
58250;SDS011;51449;51.676;5.812;2023-04-06T09:20:21;20.95;;;13.10;;
58250;SDS011;51449;51.676;5.812;2023-04-06T09:22:47;21.37;;;13.67;;
58250;SDS011;51449;51.676;5.812;2023-04-06T09:25:17;22.57;;;12.80;;
58250;SDS011;51449;51.676;5.812;2023-04-06T09:27:42;23.93;;;14.40;;
58250;SDS011;51449;51.676;5.812;2023-04-06T09:30:06;22.27;;;12.73;;
58250;SDS011;51449;51.676;5.812;2023-04-06T09:32:48;22.30;;;13.13;;
58250;SDS011;51449;51.676;5.812;2023-04-06T09:35:12;20.80;;;13.57;;
58250;SDS011;51449;51.676;5.812;2023-04-06T09:37:34;23.30;;;14.77;;
58250;SDS011;51449;51.676;5.812;2023-04-06T09:40:02;25.60;;;15.93;;
58250;SDS011;51449;51.676;5.812;2023-04-06T09:42:26;22.90;;;14.43;;
58250;SDS011;51449;51.676;5.812;2023-04-06T09:44:48;24.80;;;14.40;;
58250;SDS011;51449;51.676;5.812;2023-04-06T09:47:09;21.53;;;13.70;;
58250;SDS011;51449;51.676;5.812;2023-04-06T09:49:31;22.83;;;13.67;;
58250;SDS011;51449;51.676;5.812;2023-04-06T09:52:13;25.03;;;14.40;;
58250;SDS011;51449;51.676;5.812;2023-04-06T09:54:38;23.27;;;14.80;;
58250;SDS011;51449;51.676;5.812;2023-04-06T09:57:08;22.03;;;13.70;;
58250;SDS011;51449;51.676;5.812;2023-04-06T10:05:05;21.63;;;13.97;;
58250;SDS011;51449;51.676;5.812;2023-04-06T10:07:39;22.37;;;12.70;;
58250;SDS011;51449;51.676;5.812;2023-04-06T10:10:20;22.57;;;14.00;;
58250;SDS011;51449;51.676;5.812;2023-04-06T10:12:42;22.40;;;13.37;;
58250;SDS011;51449;51.676;5.812;2023-04-06T10:15:06;23.70;;;14.05;;
58250;SDS011;51449;51.676;5.812;2023-04-06T10:17:29;22.63;;;13.88;;
58250;SDS011;51449;51.676;5.812;2023-04-06T10:20:14;22.27;;;13.87;;
58250;SDS011;51449;51.676;5.812;2023-04-06T10:22:49;23.00;;;14.00;;
58250;SDS011;51449;51.676;5.812;2023-04-06T10:25:32;21.10;;;13.33;;
58250;SDS011;51449;51.676;5.812;2023-04-06T10:28:30;23.63;;;14.50;;
58250;SDS011;51449;51.676;5.812;2023-04-06T10:30:43;21.50;;;14.40;;
58250;SDS011;51449;51.676;5.812;2023-04-06T10:35:41;18.77;;;11.77;;
58250;SDS011;51449;51.676;5.812;2023-04-06T10:38:03;19.23;;;12.60;;
58250;SDS011;51449;51.676;5.812;2023-04-06T10:40:26;20.27;;;12.70;;
58250;SDS011;51449;51.676;5.812;2023-04-06T10:42:48;19.50;;;12.30;;
58250;SDS011;51449;51.676;5.812;2023-04-06T10:48:17;22.70;;;12.90;;
58250;SDS011;51449;51.676;5.812;2023-04-06T10:50:40;20.27;;;12.33;;
58250;SDS011;51449;51.676;5.812;2023-04-06T10:53:04;20.20;;;12.40;;
58250;SDS011;51449;51.676;5.812;2023-04-06T10:55:27;17.07;;;11.63;;
58250;SDS011;51449;51.676;5.812;2023-04-06T10:57:50;17.43;;;11.87;;
58250;SDS011;51449;51.676;5.812;2023-04-06T11:00:13;19.17;;;11.93;;
58250;SDS011;51449;51.676;5.812;2023-04-06T11:02:35;17.83;;;10.87;;
58250;SDS011;51449;51.676;5.812;2023-04-06T11:05:00;18.73;;;11.37;;
58250;SDS011;51449;51.676;5.812;2023-04-06T11:07:23;15.87;;;10.50;;
58250;SDS011;51449;51.676;5.812;2023-04-06T11:09:50;14.27;;;9.90;;
58250;SDS011;51449;51.676;5.812;2023-04-06T11:12:32;14.90;;;9.73;;
58250;SDS011;51449;51.676;5.812;2023-04-06T11:15:00;16.20;;;10.40;;
58250;SDS011;51449;51.676;5.812;2023-04-06T11:17:30;12.43;;;8.60;;
58250;SDS011;51449;51.676;5.812;2023-04-06T11:19:55;11.50;;;7.83;;
58250;SDS011;51449;51.676;5.812;2023-04-06T11:22:17;12.63;;;8.57;;
58250;SDS011;51449;51.676;5.812;2023-04-06T11:24:39;14.00;;;8.30;;
58250;SDS011;51449;51.676;5.812;2023-04-06T11:27:00;12.80;;;8.67;;
58250;SDS011;51449;51.676;5.812;2023-04-06T11:29:23;13.10;;;8.97;;
58250;SDS011;51449;51.676;5.812;2023-04-06T11:31:49;11.83;;;7.20;;
58250;SDS011;51449;51.676;5.812;2023-04-06T11:34:23;10.98;;;7.63;;
58250;SDS011;51449;51.676;5.812;2023-04-06T11:36:47;9.13;;;6.70;;
58250;SDS011;51449;51.676;5.812;2023-04-06T11:39:21;10.37;;;6.40;;
58250;SDS011;51449;51.676;5.812;2023-04-06T11:41:47;7.53;;;5.37;;
58250;SDS011;51449;51.676;5.812;2023-04-06T11:44:13;8.07;;;5.87;;
58250;SDS011;51449;51.676;5.812;2023-04-06T11:46:35;9.20;;;5.43;;
58250;SDS011;51449;51.676;5.812;2023-04-06T11:49:01;8.43;;;5.13;;
58250;SDS011;51449;51.676;5.812;2023-04-06T11:51:23;7.67;;;5.03;;
58250;SDS011;51449;51.676;5.812;2023-04-06T11:53:45;9.07;;;5.47;;
58250;SDS011;51449;51.676;5.812;2023-04-06T11:56:07;9.00;;;5.30;;
58250;SDS011;51449;51.676;5.812;2023-04-06T11:58:29;9.70;;;6.03;;
58250;SDS011;51449;51.676;5.812;2023-04-06T12:00:51;9.00;;;5.97;;
58250;SDS011;51449;51.676;5.812;2023-04-06T12:03:14;8.80;;;5.67;;
58250;SDS011;51449;51.676;5.812;2023-04-06T12:05:36;9.33;;;5.50;;
58250;SDS011;51449;51.676;5.812;2023-04-06T12:07:57;11.10;;;5.73;;
58250;SDS011;51449;51.676;5.812;2023-04-06T12:10:23;8.77;;;5.57;;
58250;SDS011;51449;51.676;5.812;2023-04-06T12:12:46;8.43;;;6.57;;
58250;SDS011;51449;51.676;5.812;2023-04-06T12:15:08;9.33;;;6.10;;
58250;SDS011;51449;51.676;5.812;2023-04-06T12:17:30;8.70;;;5.63;;
58250;SDS011;51449;51.676;5.812;2023-04-06T12:19:52;7.73;;;5.10;;
58250;SDS011;51449;51.676;5.812;2023-04-06T12:22:14;8.70;;;5.57;;
58250;SDS011;51449;51.676;5.812;2023-04-06T12:24:36;7.07;;;5.07;;
58250;SDS011;51449;51.676;5.812;2023-04-06T12:26:58;8.33;;;4.97;;
58250;SDS011;51449;51.676;5.812;2023-04-06T12:29:30;7.70;;;5.10;;
58250;SDS011;51449;51.676;5.812;2023-04-06T12:31:52;8.77;;;5.27;;
58250;SDS011;51449;51.676;5.812;2023-04-06T12:34:14;8.80;;;5.47;;
58250;SDS011;51449;51.676;5.812;2023-04-06T12:36:36;7.97;;;5.47;;
58250;SDS011;51449;51.676;5.812;2023-04-06T12:39:00;9.95;;;5.63;;
58250;SDS011;51449;51.676;5.812;2023-04-06T12:41:23;7.13;;;5.30;;
58250;SDS011;51449;51.676;5.812;2023-04-06T12:43:46;9.33;;;5.93;;
58250;SDS011;51449;51.676;5.812;2023-04-06T12:46:08;9.73;;;5.60;;
58250;SDS011;51449;51.676;5.812;2023-04-06T12:48:30;9.80;;;5.93;;
58250;SDS011;51449;51.676;5.812;2023-04-06T12:50:59;8.53;;;5.67;;
58250;SDS011;51449;51.676;5.812;2023-04-06T12:53:23;9.20;;;6.00;;
58250;SDS011;51449;51.676;5.812;2023-04-06T12:55:45;8.30;;;6.17;;
58250;SDS011;51449;51.676;5.812;2023-04-06T12:58:07;8.87;;;6.37;;
58250;SDS011;51449;51.676;5.812;2023-04-06T13:00:29;9.80;;;6.23;;
58250;SDS011;51449;51.676;5.812;2023-04-06T13:02:52;10.20;;;5.90;;
58250;SDS011;51449;51.676;5.812;2023-04-06T13:05:14;8.70;;;6.00;;
58250;SDS011;51449;51.676;5.812;2023-04-06T13:07:40;12.47;;;6.93;;
58250;SDS011;51449;51.676;5.812;2023-04-06T13:10:02;10.97;;;7.23;;
58250;SDS011;51449;51.676;5.812;2023-04-06T13:12:24;11.80;;;6.93;;
58250;SDS011;51449;51.676;5.812;2023-04-06T13:14:47;12.13;;;7.27;;
58250;SDS011;51449;51.676;5.812;2023-04-06T13:17:12;11.10;;;7.30;;
58250;SDS011;51449;51.676;5.812;2023-04-06T13:19:33;10.27;;;6.87;;
58250;SDS011;51449;51.676;5.812;2023-04-06T13:21:55;12.90;;;7.50;;
58250;SDS011;51449;51.676;5.812;2023-04-06T13:24:17;12.80;;;7.70;;
58250;SDS011;51449;51.676;5.812;2023-04-06T13:26:39;10.70;;;7.47;;
58250;SDS011;51449;51.676;5.812;2023-04-06T13:29:00;11.43;;;7.40;;
58250;SDS011;51449;51.676;5.812;2023-04-06T13:31:23;11.47;;;7.50;;
58250;SDS011;51449;51.676;5.812;2023-04-06T13:33:45;13.93;;;7.70;;
58250;SDS011;51449;51.676;5.812;2023-04-06T13:36:07;10.93;;;7.20;;
58250;SDS011;51449;51.676;5.812;2023-04-06T13:38:29;12.47;;;7.50;;
58250;SDS011;51449;51.676;5.812;2023-04-06T13:40:52;11.53;;;7.70;;
58250;SDS011;51449;51.676;5.812;2023-04-06T13:43:14;12.63;;;7.73;;
58250;SDS011;51449;51.676;5.812;2023-04-06T13:45:37;13.03;;;8.33;;
58250;SDS011;51449;51.676;5.812;2023-04-06T13:47:59;11.03;;;7.13;;
58250;SDS011;51449;51.676;5.812;2023-04-06T13:50:21;13.00;;;8.20;;
58250;SDS011;51449;51.676;5.812;2023-04-06T13:52:43;12.30;;;8.63;;
58250;SDS011;51449;51.676;5.812;2023-04-06T13:55:04;12.13;;;7.90;;
58250;SDS011;51449;51.676;5.812;2023-04-06T13:57:27;12.70;;;7.87;;
58250;SDS011;51449;51.676;5.812;2023-04-06T13:59:48;12.23;;;7.77;;
58250;SDS011;51449;51.676;5.812;2023-04-06T14:02:13;10.13;;;7.32;;
58250;SDS011;51449;51.676;5.812;2023-04-06T14:04:35;12.80;;;7.13;;
58250;SDS011;51449;51.676;5.812;2023-04-06T14:06:58;10.57;;;7.23;;
58250;SDS011;51449;51.676;5.812;2023-04-06T14:09:21;11.73;;;7.60;;
58250;SDS011;51449;51.676;5.812;2023-04-06T14:11:43;12.03;;;7.87;;
58250;SDS011;51449;51.676;5.812;2023-04-06T14:14:05;14.23;;;8.03;;
58250;SDS011;51449;51.676;5.812;2023-04-06T14:16:27;12.30;;;7.47;;
58250;SDS011;51449;51.676;5.812;2023-04-06T14:18:48;10.77;;;7.30;;
58250;SDS011;51449;51.676;5.812;2023-04-06T14:21:10;13.03;;;7.53;;
58250;SDS011;51449;51.676;5.812;2023-04-06T14:23:32;11.80;;;7.00;;
58250;SDS011;51449;51.676;5.812;2023-04-06T14:26:01;12.10;;;7.77;;
58250;SDS011;51449;51.676;5.812;2023-04-06T14:28:27;10.07;;;7.40;;
58250;SDS011;51449;51.676;5.812;2023-04-06T14:30:49;10.43;;;6.77;;
58250;SDS011;51449;51.676;5.812;2023-04-06T14:33:11;11.37;;;7.47;;
58250;SDS011;51449;51.676;5.812;2023-04-06T14:35:33;9.67;;;6.83;;
58250;SDS011;51449;51.676;5.812;2023-04-06T14:37:58;12.50;;;7.17;;
58250;SDS011;51449;51.676;5.812;2023-04-06T14:40:20;13.23;;;7.37;;
58250;SDS011;51449;51.676;5.812;2023-04-06T14:42:42;10.87;;;7.30;;
58250;SDS011;51449;51.676;5.812;2023-04-06T14:45:04;12.30;;;7.30;;
58250;SDS011;51449;51.676;5.812;2023-04-06T14:47:27;10.60;;;7.40;;
58250;SDS011;51449;51.676;5.812;2023-04-06T14:49:50;11.03;;;7.57;;
58250;SDS011;51449;51.676;5.812;2023-04-06T14:52:13;12.53;;;8.27;;
58250;SDS011;51449;51.676;5.812;2023-04-06T14:54:35;11.70;;;8.07;;
58250;SDS011;51449;51.676;5.812;2023-04-06T14:56:57;11.50;;;8.00;;
58250;SDS011;51449;51.676;5.812;2023-04-06T14:59:19;12.20;;;7.67;;
58250;SDS011;51449;51.676;5.812;2023-04-06T15:01:40;11.27;;;7.90;;
58250;SDS011;51449;51.676;5.812;2023-04-06T15:04:03;13.50;;;8.20;;
58250;SDS011;51449;51.676;5.812;2023-04-06T15:06:25;12.23;;;7.50;;
58250;SDS011;51449;51.676;5.812;2023-04-06T15:08:47;12.33;;;8.07;;
58250;SDS011;51449;51.676;5.812;2023-04-06T15:11:11;11.93;;;7.83;;
58250;SDS011;51449;51.676;5.812;2023-04-06T15:13:33;11.37;;;8.13;;
58250;SDS011;51449;51.676;5.812;2023-04-06T15:15:55;12.20;;;7.80;;
58250;SDS011;51449;51.676;5.812;2023-04-06T15:18:19;13.60;;;8.35;;
58250;SDS011;51449;51.676;5.812;2023-04-06T15:20:41;14.27;;;8.10;;
58250;SDS011;51449;51.676;5.812;2023-04-06T15:23:03;11.70;;;8.00;;
58250;SDS011;51449;51.676;5.812;2023-04-06T15:25:25;12.43;;;8.60;;
58250;SDS011;51449;51.676;5.812;2023-04-06T15:27:47;14.37;;;9.30;;
58250;SDS011;51449;51.676;5.812;2023-04-06T15:30:09;13.53;;;8.67;;
58250;SDS011;51449;51.676;5.812;2023-04-06T15:32:31;15.97;;;9.37;;
58250;SDS011;51449;51.676;5.812;2023-04-06T15:34:53;15.77;;;10.67;;
58250;SDS011;51449;51.676;5.812;2023-04-06T15:37:17;16.23;;;9.43;;
58250;SDS011;51449;51.676;5.812;2023-04-06T15:39:39;16.87;;;10.43;;
58250;SDS011;51449;51.676;5.812;2023-04-06T15:42:01;16.40;;;10.80;;
58250;SDS011;51449;51.676;5.812;2023-04-06T15:44:23;16.73;;;10.60;;
58250;SDS011;51449;51.676;5.812;2023-04-06T15:46:46;19.10;;;10.93;;
58250;SDS011;51449;51.676;5.812;2023-04-06T15:49:07;18.47;;;11.20;;
58250;SDS011;51449;51.676;5.812;2023-04-06T15:51:29;17.33;;;10.97;;
58250;SDS011;51449;51.676;5.812;2023-04-06T15:53:52;17.00;;;11.27;;
58250;SDS011;51449;51.676;5.812;2023-04-06T15:56:13;16.67;;;10.57;;
58250;SDS011;51449;51.676;5.812;2023-04-06T15:58:35;15.30;;;10.17;;
58250;SDS011;51449;51.676;5.812;2023-04-06T16:00:57;14.93;;;10.20;;
58250;SDS011;51449;51.676;5.812;2023-04-06T16:03:20;17.03;;;10.40;;
58250;SDS011;51449;51.676;5.812;2023-04-06T16:05:43;15.20;;;10.13;;
58250;SDS011;51449;51.676;5.812;2023-04-06T16:08:25;17.67;;;10.53;;
58250;SDS011;51449;51.676;5.812;2023-04-06T16:10:47;15.67;;;10.60;;
58250;SDS011;51449;51.676;5.812;2023-04-06T16:13:10;16.53;;;10.80;;
58250;SDS011;51449;51.676;5.812;2023-04-06T16:15:32;17.60;;;10.63;;
58250;SDS011;51449;51.676;5.812;2023-04-06T16:17:55;19.40;;;10.47;;
58250;SDS011;51449;51.676;5.812;2023-04-06T16:20:18;17.73;;;10.37;;
58250;SDS011;51449;51.676;5.812;2023-04-06T16:22:40;17.63;;;10.23;;
58250;SDS011;51449;51.676;5.812;2023-04-06T16:25:03;17.03;;;10.37;;
58250;SDS011;51449;51.676;5.812;2023-04-06T16:27:25;15.97;;;9.30;;
58250;SDS011;51449;51.676;5.812;2023-04-06T16:29:48;16.20;;;10.73;;
58250;SDS011;51449;51.676;5.812;2023-04-06T16:32:10;14.63;;;9.90;;
58250;SDS011;51449;51.676;5.812;2023-04-06T16:34:33;13.33;;;9.13;;
58250;SDS011;51449;51.676;5.812;2023-04-06T16:36:56;14.90;;;9.30;;
58250;SDS011;51449;51.676;5.812;2023-04-06T16:39:18;15.30;;;9.53;;
58250;SDS011;51449;51.676;5.812;2023-04-06T16:41:40;14.30;;;9.97;;
58250;SDS011;51449;51.676;5.812;2023-04-06T16:44:03;16.03;;;10.10;;
58250;SDS011;51449;51.676;5.812;2023-04-06T16:46:35;14.33;;;9.57;;
58250;SDS011;51449;51.676;5.812;2023-04-06T16:48:59;13.13;;;8.80;;
58250;SDS011;51449;51.676;5.812;2023-04-06T16:51:23;14.02;;;9.75;;
58250;SDS011;51449;51.676;5.812;2023-04-06T16:53:44;15.57;;;9.83;;
58250;SDS011;51449;51.676;5.812;2023-04-06T16:56:08;15.90;;;10.20;;
58250;SDS011;51449;51.676;5.812;2023-04-06T16:58:31;14.63;;;9.80;;
58250;SDS011;51449;51.676;5.812;2023-04-06T17:00:54;14.68;;;9.90;;
58250;SDS011;51449;51.676;5.812;2023-04-06T17:03:16;12.97;;;9.50;;
58250;SDS011;51449;51.676;5.812;2023-04-06T17:05:39;12.60;;;9.37;;
58250;SDS011;51449;51.676;5.812;2023-04-06T17:08:03;15.48;;;10.32;;
58250;SDS011;51449;51.676;5.812;2023-04-06T17:10:25;15.40;;;9.77;;
58250;SDS011;51449;51.676;5.812;2023-04-06T17:12:57;11.67;;;8.43;;
58250;SDS011;51449;51.676;5.812;2023-04-06T17:15:19;10.27;;;7.70;;
58250;SDS011;51449;51.676;5.812;2023-04-06T17:17:42;10.97;;;8.77;;
58250;SDS011;51449;51.676;5.812;2023-04-06T17:20:04;12.93;;;8.73;;
58250;SDS011;51449;51.676;5.812;2023-04-06T17:22:28;10.48;;;7.93;;
58250;SDS011;51449;51.676;5.812;2023-04-06T17:24:50;10.97;;;7.83;;
58250;SDS011;51449;51.676;5.812;2023-04-06T17:27:12;11.73;;;8.23;;
58250;SDS011;51449;51.676;5.812;2023-04-06T17:29:35;11.43;;;8.67;;
58250;SDS011;51449;51.676;5.812;2023-04-06T17:31:58;12.37;;;8.53;;
58250;SDS011;51449;51.676;5.812;2023-04-06T17:34:20;10.17;;;7.83;;
58250;SDS011;51449;51.676;5.812;2023-04-06T17:36:42;10.97;;;8.40;;
58250;SDS011;51449;51.676;5.812;2023-04-06T17:39:06;11.20;;;8.27;;
58250;SDS011;51449;51.676;5.812;2023-04-06T17:41:29;11.40;;;8.02;;
58250;SDS011;51449;51.676;5.812;2023-04-06T17:43:53;9.55;;;7.80;;
58250;SDS011;51449;51.676;5.812;2023-04-06T17:46:17;10.53;;;8.20;;
58250;SDS011;51449;51.676;5.812;2023-04-06T17:48:40;9.02;;;7.68;;
58250;SDS011;51449;51.676;5.812;2023-04-06T17:51:04;8.85;;;7.50;;
58250;SDS011;51449;51.676;5.812;2023-04-06T17:53:27;9.50;;;7.20;;
58250;SDS011;51449;51.676;5.812;2023-04-06T17:55:53;9.23;;;7.60;;
58250;SDS011;51449;51.676;5.812;2023-04-06T17:58:16;9.13;;;7.43;;
58250;SDS011;51449;51.676;5.812;2023-04-06T18:00:38;8.30;;;6.83;;
58250;SDS011;51449;51.676;5.812;2023-04-06T18:03:00;8.40;;;7.03;;
58250;SDS011;51449;51.676;5.812;2023-04-06T18:05:23;7.90;;;6.83;;
58250;SDS011;51449;51.676;5.812;2023-04-06T18:07:49;8.57;;;7.00;;
58250;SDS011;51449;51.676;5.812;2023-04-06T18:10:13;9.63;;;7.28;;
58250;SDS011;51449;51.676;5.812;2023-04-06T18:12:34;9.43;;;7.33;;
58250;SDS011;51449;51.676;5.812;2023-04-06T18:14:57;9.83;;;7.13;;
58250;SDS011;51449;51.676;5.812;2023-04-06T18:17:19;7.87;;;6.90;;
58250;SDS011;51449;51.676;5.812;2023-04-06T18:19:40;8.37;;;7.30;;
58250;SDS011;51449;51.676;5.812;2023-04-06T18:22:03;9.63;;;7.63;;
58250;SDS011;51449;51.676;5.812;2023-04-06T18:24:27;8.13;;;7.00;;
58250;SDS011;51449;51.676;5.812;2023-04-06T18:27:03;9.80;;;7.53;;
58250;SDS011;51449;51.676;5.812;2023-04-06T18:29:25;9.50;;;7.83;;
58250;SDS011;51449;51.676;5.812;2023-04-06T18:31:47;9.50;;;7.70;;
58250;SDS011;51449;51.676;5.812;2023-04-06T18:34:11;9.48;;;7.78;;
58250;SDS011;51449;51.676;5.812;2023-04-06T18:36:34;9.13;;;7.90;;
58250;SDS011;51449;51.676;5.812;2023-04-06T18:38:56;9.67;;;7.77;;
58250;SDS011;51449;51.676;5.812;2023-04-06T18:41:18;9.43;;;7.80;;
58250;SDS011;51449;51.676;5.812;2023-04-06T18:43:42;8.70;;;7.60;;
58250;SDS011;51449;51.676;5.812;2023-04-06T18:46:11;9.60;;;7.90;;
58250;SDS011;51449;51.676;5.812;2023-04-06T18:48:34;8.80;;;7.80;;
58250;SDS011;51449;51.676;5.812;2023-04-06T18:50:57;9.07;;;7.93;;
58250;SDS011;51449;51.676;5.812;2023-04-06T18:53:25;10.07;;;8.33;;
58250;SDS011;51449;51.676;5.812;2023-04-06T18:55:46;9.50;;;8.03;;
58250;SDS011;51449;51.676;5.812;2023-04-06T18:58:08;9.60;;;8.60;;
58250;SDS011;51449;51.676;5.812;2023-04-06T19:00:30;10.47;;;8.57;;
58250;SDS011;51449;51.676;5.812;2023-04-06T19:02:53;10.87;;;8.60;;
58250;SDS011;51449;51.676;5.812;2023-04-06T19:05:15;10.77;;;8.87;;
58250;SDS011;51449;51.676;5.812;2023-04-06T19:07:38;10.30;;;8.13;;
58250;SDS011;51449;51.676;5.812;2023-04-06T19:10:01;10.57;;;8.60;;
58250;SDS011;51449;51.676;5.812;2023-04-06T19:12:22;11.80;;;9.23;;
58250;SDS011;51449;51.676;5.812;2023-04-06T19:14:44;9.37;;;8.27;;
58250;SDS011;51449;51.676;5.812;2023-04-06T19:17:12;10.40;;;9.20;;
58250;SDS011;51449;51.676;5.812;2023-04-06T19:19:35;9.77;;;8.37;;
58250;SDS011;51449;51.676;5.812;2023-04-06T19:21:58;10.00;;;8.73;;
58250;SDS011;51449;51.676;5.812;2023-04-06T19:24:21;10.23;;;9.15;;
58250;SDS011;51449;51.676;5.812;2023-04-06T19:26:43;10.87;;;9.37;;
58250;SDS011;51449;51.676;5.812;2023-04-06T19:29:05;11.47;;;9.90;;
58250;SDS011;51449;51.676;5.812;2023-04-06T19:31:29;11.10;;;9.60;;
58250;SDS011;51449;51.676;5.812;2023-04-06T19:33:51;14.53;;;11.30;;
58250;SDS011;51449;51.676;5.812;2023-04-06T19:36:14;10.63;;;9.53;;
58250;SDS011;51449;51.676;5.812;2023-04-06T19:38:36;11.30;;;9.90;;
58250;SDS011;51449;51.676;5.812;2023-04-06T19:40:59;12.50;;;10.63;;
58250;SDS011;51449;51.676;5.812;2023-04-06T19:43:22;15.13;;;10.77;;
58250;SDS011;51449;51.676;5.812;2023-04-06T19:45:45;12.60;;;11.30;;
58250;SDS011;51449;51.676;5.812;2023-04-06T19:48:07;12.83;;;10.73;;
58250;SDS011;51449;51.676;5.812;2023-04-06T19:50:29;13.77;;;11.60;;
58250;SDS011;51449;51.676;5.812;2023-04-06T19:52:52;14.33;;;11.53;;
58250;SDS011;51449;51.676;5.812;2023-04-06T19:55:16;13.57;;;11.55;;
58250;SDS011;51449;51.676;5.812;2023-04-06T19:57:37;14.70;;;11.57;;
58250;SDS011;51449;51.676;5.812;2023-04-06T19:59:59;14.27;;;10.67;;
58250;SDS011;51449;51.676;5.812;2023-04-06T20:02:29;14.33;;;11.73;;
58250;SDS011;51449;51.676;5.812;2023-04-06T20:04:51;16.30;;;12.47;;
58250;SDS011;51449;51.676;5.812;2023-04-06T20:07:14;15.40;;;12.10;;
58250;SDS011;51449;51.676;5.812;2023-04-06T20:09:36;16.53;;;13.40;;
58250;SDS011;51449;51.676;5.812;2023-04-06T20:11:58;16.33;;;13.33;;
58250;SDS011;51449;51.676;5.812;2023-04-06T20:14:21;15.63;;;13.57;;
58250;SDS011;51449;51.676;5.812;2023-04-06T20:16:43;19.30;;;13.70;;
58250;SDS011;51449;51.676;5.812;2023-04-06T20:19:05;19.30;;;14.27;;
58250;SDS011;51449;51.676;5.812;2023-04-06T20:21:27;17.17;;;13.60;;
58250;SDS011;51449;51.676;5.812;2023-04-06T20:23:49;18.07;;;14.30;;
58250;SDS011;51449;51.676;5.812;2023-04-06T20:26:11;19.40;;;14.60;;
58250;SDS011;51449;51.676;5.812;2023-04-06T20:28:33;20.37;;;14.73;;
58250;SDS011;51449;51.676;5.812;2023-04-06T20:30:55;19.13;;;15.23;;
58250;SDS011;51449;51.676;5.812;2023-04-06T20:33:16;19.73;;;14.90;;
58250;SDS011;51449;51.676;5.812;2023-04-06T20:35:39;21.40;;;15.37;;
58250;SDS011;51449;51.676;5.812;2023-04-06T20:38:00;19.33;;;15.17;;